sensor_id;sensor_type;location;lat;lon;timestamp;pressure;altitude;pressure_sealevel;temperature;humidity
51468;BME280;37545;45.302;-122.946;2023-03-12T00:01:31;100677.50;;;13.98;49.50
51468;BME280;37545;45.302;-122.946;2023-03-12T00:04:01;100671.31;;;13.90;50.71
51468;BME280;37545;45.302;-122.946;2023-03-12T00:06:30;100676.44;;;13.85;48.96
51468;BME280;37545;45.302;-122.946;2023-03-12T00:08:58;100674.78;;;13.90;49.61
51468;BME280;37545;45.302;-122.946;2023-03-12T00:11:27;100677.44;;;13.95;51.60
51468;BME280;37545;45.302;-122.946;2023-03-12T00:13:57;100670.56;;;13.98;49.96
51468;BME280;37545;45.302;-122.946;2023-03-12T00:16:27;100668.06;;;14.04;49.45
51468;BME280;37545;45.302;-122.946;2023-03-12T00:18:57;100669.81;;;14.06;50.46
51468;BME280;37545;45.302;-122.946;2023-03-12T00:21:26;100666.16;;;13.94;51.17
51468;BME280;37545;45.302;-122.946;2023-03-12T00:23:54;100663.44;;;13.85;51.05
51468;BME280;37545;45.302;-122.946;2023-03-12T00:26:23;100659.00;;;13.78;51.06
51468;BME280;37545;45.302;-122.946;2023-03-12T00:28:51;100664.03;;;13.67;50.17
51468;BME280;37545;45.302;-122.946;2023-03-12T00:31:22;100662.19;;;13.60;50.36
51468;BME280;37545;45.302;-122.946;2023-03-12T00:33:52;100661.22;;;13.53;48.73
51468;BME280;37545;45.302;-122.946;2023-03-12T00:36:25;100662.03;;;13.49;50.03
51468;BME280;37545;45.302;-122.946;2023-03-12T00:38:55;100656.78;;;13.46;49.99
51468;BME280;37545;45.302;-122.946;2023-03-12T00:41:24;100654.97;;;13.42;50.50
51468;BME280;37545;45.302;-122.946;2023-03-12T00:43:53;100655.84;;;13.41;50.17
51468;BME280;37545;45.302;-122.946;2023-03-12T00:46:22;100661.03;;;13.41;49.49
51468;BME280;37545;45.302;-122.946;2023-03-12T00:48:51;100655.78;;;13.39;50.17
51468;BME280;37545;45.302;-122.946;2023-03-12T00:51:28;100650.53;;;13.35;50.21
51468;BME280;37545;45.302;-122.946;2023-03-12T00:53:57;100653.13;;;13.33;51.24
51468;BME280;37545;45.302;-122.946;2023-03-12T00:56:25;100647.06;;;13.34;51.86
51468;BME280;37545;45.302;-122.946;2023-03-12T00:58:54;100644.41;;;13.31;51.16
51468;BME280;37545;45.302;-122.946;2023-03-12T01:01:23;100646.13;;;13.29;51.60
51468;BME280;37545;45.302;-122.946;2023-03-12T01:03:53;100645.13;;;13.24;51.36
51468;BME280;37545;45.302;-122.946;2023-03-12T01:06:22;100650.25;;;13.21;50.27
51468;BME280;37545;45.302;-122.946;2023-03-12T01:08:52;100654.56;;;13.17;50.88
51468;BME280;37545;45.302;-122.946;2023-03-12T01:11:21;100649.19;;;13.08;50.68
51468;BME280;37545;45.302;-122.946;2023-03-12T01:13:49;100643.06;;;13.05;50.95
51468;BME280;37545;45.302;-122.946;2023-03-12T01:16:18;100650.66;;;12.94;52.37
51468;BME280;37545;45.302;-122.946;2023-03-12T01:18:47;100645.38;;;12.88;51.29
51468;BME280;37545;45.302;-122.946;2023-03-12T01:21:16;100647.97;;;12.88;51.42
51468;BME280;37545;45.302;-122.946;2023-03-12T01:23:44;100647.94;;;12.86;50.86
51468;BME280;37545;45.302;-122.946;2023-03-12T01:26:14;100651.22;;;12.77;51.05
51468;BME280;37545;45.302;-122.946;2023-03-12T01:28:43;100646.88;;;12.76;50.73
51468;BME280;37545;45.302;-122.946;2023-03-12T01:31:13;100646.03;;;12.77;51.00
51468;BME280;37545;45.302;-122.946;2023-03-12T01:33:42;100646.09;;;12.81;50.83
51468;BME280;37545;45.302;-122.946;2023-03-12T01:36:17;100645.19;;;12.78;51.98
51468;BME280;37545;45.302;-122.946;2023-03-12T01:38:46;100650.31;;;12.75;53.52
51468;BME280;37545;45.302;-122.946;2023-03-12T01:41:19;100643.34;;;12.71;52.57
51468;BME280;37545;45.302;-122.946;2023-03-12T01:43:47;100644.13;;;12.67;52.85
51468;BME280;37545;45.302;-122.946;2023-03-12T01:46:26;100643.94;;;12.58;53.29
51468;BME280;37545;45.302;-122.946;2023-03-12T01:48:59;100650.72;;;12.51;52.25
51468;BME280;37545;45.302;-122.946;2023-03-12T01:51:32;100646.34;;;12.49;53.87
51468;BME280;37545;45.302;-122.946;2023-03-12T01:54:05;100656.72;;;12.49;51.46
51468;BME280;37545;45.302;-122.946;2023-03-12T01:56:37;100651.53;;;12.49;51.05
51468;BME280;37545;45.302;-122.946;2023-03-12T01:59:10;100657.56;;;12.46;51.38
51468;BME280;37545;45.302;-122.946;2023-03-12T02:01:41;100651.34;;;12.40;50.99
51468;BME280;37545;45.302;-122.946;2023-03-12T02:04:11;100654.78;;;12.39;51.27
51468;BME280;37545;45.302;-122.946;2023-03-12T02:06:44;100649.50;;;12.32;50.21
51468;BME280;37545;45.302;-122.946;2023-03-12T02:09:14;100646.75;;;12.26;50.54
51468;BME280;37545;45.302;-122.946;2023-03-12T02:11:47;100650.94;;;12.20;49.44
51468;BME280;37545;45.302;-122.946;2023-03-12T02:14:16;100648.19;;;12.12;50.03
51468;BME280;37545;45.302;-122.946;2023-03-12T02:16:44;100645.47;;;12.06;50.95
51468;BME280;37545;45.302;-122.946;2023-03-12T02:19:19;100652.22;;;11.99;50.24
51468;BME280;37545;45.302;-122.946;2023-03-12T02:21:50;100639.88;;;11.87;50.66
51468;BME280;37545;45.302;-122.946;2023-03-12T02:24:25;100651.88;;;11.85;51.71
51468;BME280;37545;45.302;-122.946;2023-03-12T02:26:57;100651.69;;;11.76;51.89
51468;BME280;37545;45.302;-122.946;2023-03-12T02:29:27;100647.09;;;11.66;52.52
51468;BME280;37545;45.302;-122.946;2023-03-12T02:32:00;100649.56;;;11.60;52.96
51468;BME280;37545;45.302;-122.946;2023-03-12T02:34:29;100648.50;;;11.51;52.90
51468;BME280;37545;45.302;-122.946;2023-03-12T02:36:58;100647.47;;;11.45;54.01
51468;BME280;37545;45.302;-122.946;2023-03-12T02:39:26;100646.38;;;11.35;55.17
51468;BME280;37545;45.302;-122.946;2023-03-12T02:41:58;100653.13;;;11.28;55.70
51468;BME280;37545;45.302;-122.946;2023-03-12T02:44:29;100648.59;;;11.20;58.25
51468;BME280;37545;45.302;-122.946;2023-03-12T02:46:59;100657.03;;;11.11;59.59
51468;BME280;37545;45.302;-122.946;2023-03-12T02:49:31;100655.88;;;11.01;60.12
51468;BME280;37545;45.302;-122.946;2023-03-12T02:52:00;100653.06;;;10.92;61.81
51468;BME280;37545;45.302;-122.946;2023-03-12T02:54:29;100652.00;;;10.84;62.10
51468;BME280;37545;45.302;-122.946;2023-03-12T02:57:00;100656.91;;;10.75;62.66
51468;BME280;37545;45.302;-122.946;2023-03-12T02:59:28;100652.41;;;10.67;63.00
51468;BME280;37545;45.302;-122.946;2023-03-12T03:01:58;100647.06;;;10.61;62.90
51468;BME280;37545;45.302;-122.946;2023-03-12T03:04:28;100659.81;;;10.54;62.80
51468;BME280;37545;45.302;-122.946;2023-03-12T03:06:57;100659.56;;;10.46;65.52
51468;BME280;37545;45.302;-122.946;2023-03-12T03:09:25;100665.47;;;10.42;65.79
51468;BME280;37545;45.302;-122.946;2023-03-12T03:11:54;100663.56;;;10.35;65.15
51468;BME280;37545;45.302;-122.946;2023-03-12T03:14:24;100660.72;;;10.27;65.24
51468;BME280;37545;45.302;-122.946;2023-03-12T03:16:53;100650.97;;;10.18;66.34
51468;BME280;37545;45.302;-122.946;2023-03-12T03:19:22;100655.88;;;10.09;65.03
51468;BME280;37545;45.302;-122.946;2023-03-12T03:21:50;100655.59;;;10.00;66.54
51468;BME280;37545;45.302;-122.946;2023-03-12T03:24:19;100662.34;;;9.95;67.70
51468;BME280;37545;45.302;-122.946;2023-03-12T03:26:47;100656.06;;;9.86;68.14
51468;BME280;37545;45.302;-122.946;2023-03-12T03:29:16;100659.22;;;9.78;67.86
51468;BME280;37545;45.302;-122.946;2023-03-12T03:31:46;100658.94;;;9.69;68.56
51468;BME280;37545;45.302;-122.946;2023-03-12T03:34:14;100656.13;;;9.61;69.20
51468;BME280;37545;45.302;-122.946;2023-03-12T03:36:43;100657.56;;;9.53;69.04
51468;BME280;37545;45.302;-122.946;2023-03-12T03:39:11;100659.84;;;9.43;69.43
51468;BME280;37545;45.302;-122.946;2023-03-12T03:41:40;100662.19;;;9.36;69.17
51468;BME280;37545;45.302;-122.946;2023-03-12T03:44:09;100663.69;;;9.29;69.85
51468;BME280;37545;45.302;-122.946;2023-03-12T03:46:38;100658.28;;;9.21;69.52
51468;BME280;37545;45.302;-122.946;2023-03-12T03:49:09;100661.50;;;9.14;69.70
51468;BME280;37545;45.302;-122.946;2023-03-12T03:51:37;100657.72;;;9.05;71.08
51468;BME280;37545;45.302;-122.946;2023-03-12T03:54:10;100669.59;;;8.99;72.02
51468;BME280;37545;45.302;-122.946;2023-03-12T03:56:41;100666.81;;;8.93;73.83
51468;BME280;37545;45.302;-122.946;2023-03-12T03:59:10;100662.25;;;8.86;73.30
51468;BME280;37545;45.302;-122.946;2023-03-12T04:01:39;100657.75;;;8.80;73.57
51468;BME280;37545;45.302;-122.946;2023-03-12T04:04:09;100660.97;;;8.75;74.43
51468;BME280;37545;45.302;-122.946;2023-03-12T04:06:38;100662.59;;;8.71;75.63
51468;BME280;37545;45.302;-122.946;2023-03-12T04:09:07;100668.41;;;8.66;75.56
51468;BME280;37545;45.302;-122.946;2023-03-12T04:11:35;100668.28;;;8.63;79.55
51468;BME280;37545;45.302;-122.946;2023-03-12T04:14:04;100666.41;;;8.58;83.74
51468;BME280;37545;45.302;-122.946;2023-03-12T04:16:32;100672.19;;;8.51;80.52
51468;BME280;37545;45.302;-122.946;2023-03-12T04:19:01;100667.53;;;8.41;79.50
51468;BME280;37545;45.302;-122.946;2023-03-12T04:21:31;100663.81;;;8.34;78.76
51468;BME280;37545;45.302;-122.946;2023-03-12T04:24:13;100666.91;;;8.26;77.16
51468;BME280;37545;45.302;-122.946;2023-03-12T04:26:43;100669.25;;;8.19;78.11
51468;BME280;37545;45.302;-122.946;2023-03-12T04:29:12;100668.97;;;8.12;77.81
51468;BME280;37545;45.302;-122.946;2023-03-12T04:31:41;100668.72;;;8.06;77.81
51468;BME280;37545;45.302;-122.946;2023-03-12T04:34:09;100665.00;;;7.97;77.36
51468;BME280;37545;45.302;-122.946;2023-03-12T04:36:40;100670.69;;;7.89;78.05
51468;BME280;37545;45.302;-122.946;2023-03-12T04:39:08;100662.66;;;7.81;78.93
51468;BME280;37545;45.302;-122.946;2023-03-12T04:41:50;100668.31;;;7.72;78.65
51468;BME280;37545;45.302;-122.946;2023-03-12T04:44:18;100656.03;;;7.65;78.58
51468;BME280;37545;45.302;-122.946;2023-03-12T04:46:47;100655.78;;;7.59;79.00
51468;BME280;37545;45.302;-122.946;2023-03-12T04:49:15;100659.03;;;7.55;79.18
51468;BME280;37545;45.302;-122.946;2023-03-12T04:51:46;100656.09;;;7.46;79.90
51468;BME280;37545;45.302;-122.946;2023-03-12T04:54:14;100659.34;;;7.42;79.95
51468;BME280;37545;45.302;-122.946;2023-03-12T04:56:43;100653.97;;;7.36;80.30
51468;BME280;37545;45.302;-122.946;2023-03-12T04:59:11;100650.28;;;7.29;80.38
51468;BME280;37545;45.302;-122.946;2023-03-12T05:01:40;100650.88;;;7.23;80.31
51468;BME280;37545;45.302;-122.946;2023-03-12T05:04:09;100660.13;;;7.18;79.99
51468;BME280;37545;45.302;-122.946;2023-03-12T05:06:37;100661.63;;;7.13;80.31
51468;BME280;37545;45.302;-122.946;2023-03-12T05:09:08;100651.88;;;7.06;80.69
51468;BME280;37545;45.302;-122.946;2023-03-12T05:11:36;100657.63;;;7.00;80.75
51468;BME280;37545;45.302;-122.946;2023-03-12T05:14:05;100658.28;;;6.95;81.18
51468;BME280;37545;45.302;-122.946;2023-03-12T05:16:33;100661.41;;;6.87;81.44
51468;BME280;37545;45.302;-122.946;2023-03-12T05:19:02;100662.13;;;6.85;81.55
51468;BME280;37545;45.302;-122.946;2023-03-12T05:21:30;100655.03;;;6.79;81.72
51468;BME280;37545;45.302;-122.946;2023-03-12T05:23:59;100666.75;;;6.72;81.37
51468;BME280;37545;45.302;-122.946;2023-03-12T05:26:31;100664.81;;;6.67;80.63
51468;BME280;37545;45.302;-122.946;2023-03-12T05:29:00;100669.66;;;6.61;81.29
51468;BME280;37545;45.302;-122.946;2023-03-12T05:31:29;100662.41;;;6.52;81.04
51468;BME280;37545;45.302;-122.946;2023-03-12T05:34:01;100664.66;;;6.44;81.19
51468;BME280;37545;45.302;-122.946;2023-03-12T05:36:29;100667.78;;;6.37;81.81
51468;BME280;37545;45.302;-122.946;2023-03-12T05:38:58;100664.91;;;6.31;82.11
51468;BME280;37545;45.302;-122.946;2023-03-12T05:41:42;100653.28;;;6.20;83.14
51468;BME280;37545;45.302;-122.946;2023-03-12T05:44:11;100661.13;;;6.23;83.44
51468;BME280;37545;45.302;-122.946;2023-03-12T05:46:41;100653.16;;;6.17;84.07
51468;BME280;37545;45.302;-122.946;2023-03-12T05:49:10;100655.44;;;6.11;84.65
51468;BME280;37545;45.302;-122.946;2023-03-12T05:51:39;100657.88;;;6.07;86.08
51468;BME280;37545;45.302;-122.946;2023-03-12T05:54:09;100658.59;;;6.05;86.56
51468;BME280;37545;45.302;-122.946;2023-03-12T05:56:37;100661.09;;;6.03;86.44
51468;BME280;37545;45.302;-122.946;2023-03-12T05:59:08;100660.97;;;6.00;87.34
51468;BME280;37545;45.302;-122.946;2023-03-12T06:01:37;100659.19;;;5.99;87.65
51468;BME280;37545;45.302;-122.946;2023-03-12T06:04:06;100666.91;;;5.99;88.73
51468;BME280;37545;45.302;-122.946;2023-03-12T06:06:35;100657.28;;;5.95;88.61
51468;BME280;37545;45.302;-122.946;2023-03-12T06:09:04;100661.44;;;5.93;90.15
51468;BME280;37545;45.302;-122.946;2023-03-12T06:11:33;100659.59;;;5.91;89.97
51468;BME280;37545;45.302;-122.946;2023-03-12T06:14:02;100668.13;;;5.90;90.39
51468;BME280;37545;45.302;-122.946;2023-03-12T06:16:32;100669.81;;;5.89;90.32
51468;BME280;37545;45.302;-122.946;2023-03-12T06:19:02;100668.00;;;5.86;90.23
51468;BME280;37545;45.302;-122.946;2023-03-12T06:21:32;100661.94;;;5.86;90.62
51468;BME280;37545;45.302;-122.946;2023-03-12T06:24:01;100658.28;;;5.81;90.27
51468;BME280;37545;45.302;-122.946;2023-03-12T06:26:30;100659.03;;;5.78;90.62
51468;BME280;37545;45.302;-122.946;2023-03-12T06:28:58;100656.38;;;5.77;91.72
51468;BME280;37545;45.302;-122.946;2023-03-12T06:31:27;100664.03;;;5.75;91.29
51468;BME280;37545;45.302;-122.946;2023-03-12T06:33:57;100663.13;;;5.75;91.31
51468;BME280;37545;45.302;-122.946;2023-03-12T06:36:26;100659.66;;;5.73;92.09
51468;BME280;37545;45.302;-122.946;2023-03-12T06:38:54;100662.03;;;5.70;91.70
51468;BME280;37545;45.302;-122.946;2023-03-12T06:41:23;100661.91;;;5.66;91.24
51468;BME280;37545;45.302;-122.946;2023-03-12T06:43:51;100658.38;;;5.64;92.22
51468;BME280;37545;45.302;-122.946;2023-03-12T06:46:20;100657.34;;;5.61;92.63
51468;BME280;37545;45.302;-122.946;2023-03-12T06:48:50;100655.50;;;5.58;92.56
51468;BME280;37545;45.302;-122.946;2023-03-12T06:51:20;100653.69;;;5.56;92.04
51468;BME280;37545;45.302;-122.946;2023-03-12T06:53:49;100660.38;;;5.52;92.40
51468;BME280;37545;45.302;-122.946;2023-03-12T06:56:17;100654.13;;;5.47;92.30
51468;BME280;37545;45.302;-122.946;2023-03-12T06:58:46;100651.41;;;5.44;92.36
51468;BME280;37545;45.302;-122.946;2023-03-12T07:01:15;100651.19;;;5.39;93.01
51468;BME280;37545;45.302;-122.946;2023-03-12T07:03:43;100649.34;;;5.37;93.37
51468;BME280;37545;45.302;-122.946;2023-03-12T07:06:13;100670.63;;;5.34;93.96
51468;BME280;37545;45.302;-122.946;2023-03-12T07:08:44;100657.63;;;5.31;93.98
51468;BME280;37545;45.302;-122.946;2023-03-12T07:11:13;100667.75;;;5.28;94.31
51468;BME280;37545;45.302;-122.946;2023-03-12T07:13:43;100665.03;;;5.25;95.28
51468;BME280;37545;45.302;-122.946;2023-03-12T07:16:13;100653.81;;;5.23;96.44
51468;BME280;37545;45.302;-122.946;2023-03-12T07:18:42;100660.63;;;5.22;96.41
51468;BME280;37545;45.302;-122.946;2023-03-12T07:21:10;100654.47;;;5.19;96.86
51468;BME280;37545;45.302;-122.946;2023-03-12T07:23:39;100662.25;;;5.20;96.92
51468;BME280;37545;45.302;-122.946;2023-03-12T07:26:09;100651.81;;;5.17;96.62
51468;BME280;37545;45.302;-122.946;2023-03-12T07:28:38;100654.16;;;5.13;96.48
51468;BME280;37545;45.302;-122.946;2023-03-12T07:31:06;100653.28;;;5.12;97.27
51468;BME280;37545;45.302;-122.946;2023-03-12T07:33:35;100651.53;;;5.11;97.13
51468;BME280;37545;45.302;-122.946;2023-03-12T07:36:04;100649.75;;;5.10;97.59
51468;BME280;37545;45.302;-122.946;2023-03-12T07:38:33;100647.84;;;5.06;97.13
51468;BME280;37545;45.302;-122.946;2023-03-12T07:41:02;100645.28;;;5.06;97.12
51468;BME280;37545;45.302;-122.946;2023-03-12T07:43:32;100646.09;;;5.05;96.90
51468;BME280;37545;45.302;-122.946;2023-03-12T07:46:00;100652.81;;;5.03;97.20
51468;BME280;37545;45.302;-122.946;2023-03-12T07:48:29;100638.16;;;5.00;96.74
51468;BME280;37545;45.302;-122.946;2023-03-12T07:50:58;100636.41;;;4.99;97.19
51468;BME280;37545;45.302;-122.946;2023-03-12T07:53:26;100627.69;;;4.96;97.00
51468;BME280;37545;45.302;-122.946;2023-03-12T07:55:55;100638.81;;;4.96;97.55
51468;BME280;37545;45.302;-122.946;2023-03-12T07:58:23;100625.94;;;4.95;98.21
51468;BME280;37545;45.302;-122.946;2023-03-12T08:00:54;100631.72;;;4.91;98.02
51468;BME280;37545;45.302;-122.946;2023-03-12T08:03:22;100629.78;;;4.87;98.27
51468;BME280;37545;45.302;-122.946;2023-03-12T08:05:58;100633.94;;;4.85;98.40
51468;BME280;37545;45.302;-122.946;2023-03-12T08:08:28;100634.59;;;4.80;97.98
51468;BME280;37545;45.302;-122.946;2023-03-12T08:10:57;100636.19;;;4.78;98.39
51468;BME280;37545;45.302;-122.946;2023-03-12T08:13:26;100636.91;;;4.76;98.00
51468;BME280;37545;45.302;-122.946;2023-03-12T08:15:56;100651.44;;;4.75;98.03
51468;BME280;37545;45.302;-122.946;2023-03-12T08:18:25;100644.56;;;4.74;98.35
51468;BME280;37545;45.302;-122.946;2023-03-12T08:20:53;100649.50;;;4.71;97.84
51468;BME280;37545;45.302;-122.946;2023-03-12T08:23:23;100649.28;;;4.67;97.93
51468;BME280;37545;45.302;-122.946;2023-03-12T08:25:53;100649.22;;;4.65;96.73
51468;BME280;37545;45.302;-122.946;2023-03-12T08:28:22;100649.75;;;4.59;96.84
51468;BME280;37545;45.302;-122.946;2023-03-12T08:30:52;100654.66;;;4.55;97.47
51468;BME280;37545;45.302;-122.946;2023-03-12T08:33:23;100658.81;;;4.53;98.01
51468;BME280;37545;45.302;-122.946;2023-03-12T08:35:52;100651.94;;;4.52;98.89
51468;BME280;37545;45.302;-122.946;2023-03-12T08:38:20;100650.16;;;4.51;98.88
51468;BME280;37545;45.302;-122.946;2023-03-12T08:40:54;100647.53;;;4.49;98.98
51468;BME280;37545;45.302;-122.946;2023-03-12T08:43:24;100643.03;;;4.45;98.67
51468;BME280;37545;45.302;-122.946;2023-03-12T08:45:54;100648.81;;;4.41;98.18
51468;BME280;37545;45.302;-122.946;2023-03-12T08:48:24;100641.84;;;4.38;98.59
51468;BME280;37545;45.302;-122.946;2023-03-12T08:50:54;100649.38;;;4.35;98.50
51468;BME280;37545;45.302;-122.946;2023-03-12T08:53:23;100638.94;;;4.32;98.86
51468;BME280;37545;45.302;-122.946;2023-03-12T08:55:52;100645.66;;;4.30;99.12
51468;BME280;37545;45.302;-122.946;2023-03-12T08:58:22;100658.41;;;4.29;99.52
51468;BME280;37545;45.302;-122.946;2023-03-12T09:00:51;100657.34;;;4.25;99.55
51468;BME280;37545;45.302;-122.946;2023-03-12T09:03:20;100655.63;;;4.24;99.86
51468;BME280;37545;45.302;-122.946;2023-03-12T09:05:58;100659.75;;;4.22;99.28
51468;BME280;37545;45.302;-122.946;2023-03-12T09:08:29;100658.09;;;4.23;100.00
51468;BME280;37545;45.302;-122.946;2023-03-12T09:10:59;100658.94;;;4.23;100.00
51468;BME280;37545;45.302;-122.946;2023-03-12T09:13:29;100662.25;;;4.20;100.00
51468;BME280;37545;45.302;-122.946;2023-03-12T09:15:58;100650.00;;;4.15;100.00
51468;BME280;37545;45.302;-122.946;2023-03-12T09:18:27;100657.75;;;4.16;100.00
51468;BME280;37545;45.302;-122.946;2023-03-12T09:20:58;100661.91;;;4.14;100.00
51468;BME280;37545;45.302;-122.946;2023-03-12T09:23:27;100655.84;;;4.12;99.70
51468;BME280;37545;45.302;-122.946;2023-03-12T09:25:56;100657.50;;;4.12;100.00
51468;BME280;37545;45.302;-122.946;2023-03-12T09:28:24;100653.19;;;4.11;100.00
51468;BME280;37545;45.302;-122.946;2023-03-12T09:30:53;100651.34;;;4.08;100.00
51468;BME280;37545;45.302;-122.946;2023-03-12T09:33:21;100639.25;;;4.06;99.31
51468;BME280;37545;45.302;-122.946;2023-03-12T09:35:57;100644.19;;;4.03;99.90
51468;BME280;37545;45.302;-122.946;2023-03-12T09:38:26;100641.56;;;4.01;100.00
51468;BME280;37545;45.302;-122.946;2023-03-12T09:40:57;100639.69;;;3.98;99.94
51468;BME280;37545;45.302;-122.946;2023-03-12T09:43:36;100642.97;;;3.96;99.03
51468;BME280;37545;45.302;-122.946;2023-03-12T09:46:11;100640.38;;;3.94;99.83
51468;BME280;37545;45.302;-122.946;2023-03-12T09:48:42;100638.59;;;3.93;100.00
51468;BME280;37545;45.302;-122.946;2023-03-12T09:51:17;100646.19;;;3.92;99.29
51468;BME280;37545;45.302;-122.946;2023-03-12T09:53:49;100644.31;;;3.89;99.08
51468;BME280;37545;45.302;-122.946;2023-03-12T09:56:20;100639.16;;;3.88;99.46
51468;BME280;37545;45.302;-122.946;2023-03-12T09:58:49;100629.63;;;3.85;100.00
51468;BME280;37545;45.302;-122.946;2023-03-12T10:01:36;100631.22;;;3.83;99.04
51468;BME280;37545;45.302;-122.946;2023-03-12T10:04:31;100629.19;;;3.77;98.92
51468;BME280;37545;45.302;-122.946;2023-03-12T10:07:08;100609.28;;;3.72;99.22
51468;BME280;37545;45.302;-122.946;2023-03-12T10:10:02;100620.13;;;3.68;98.68
51468;BME280;37545;45.302;-122.946;2023-03-12T10:12:45;100609.66;;;3.63;99.65
51468;BME280;37545;45.302;-122.946;2023-03-12T10:15:23;100611.34;;;3.63;99.98
51468;BME280;37545;45.302;-122.946;2023-03-12T10:18:03;100605.41;;;3.64;100.00
51468;BME280;37545;45.302;-122.946;2023-03-12T10:21:04;100589.91;;;3.61;99.58
51468;BME280;37545;45.302;-122.946;2023-03-12T10:23:47;100595.00;;;3.61;99.73
51468;BME280;37545;45.302;-122.946;2023-03-12T10:26:22;100596.59;;;3.59;99.70
51468;BME280;37545;45.302;-122.946;2023-03-12T10:28:54;100614.50;;;3.59;98.01
51468;BME280;37545;45.302;-122.946;2023-03-12T10:31:26;100609.03;;;3.52;97.72
51468;BME280;37545;45.302;-122.946;2023-03-12T10:33:57;100610.63;;;3.50;99.13
51468;BME280;37545;45.302;-122.946;2023-03-12T10:36:33;100605.53;;;3.50;100.00
51468;BME280;37545;45.302;-122.946;2023-03-12T10:39:08;100607.16;;;3.48;98.99
51468;BME280;37545;45.302;-122.946;2023-03-12T10:41:41;100605.09;;;3.43;99.70
51468;BME280;37545;45.302;-122.946;2023-03-12T10:44:17;100599.84;;;3.40;100.00
51468;BME280;37545;45.302;-122.946;2023-03-12T10:47:00;100607.41;;;3.38;100.00
51468;BME280;37545;45.302;-122.946;2023-03-12T10:49:33;100599.31;;;3.30;100.00
51468;BME280;37545;45.302;-122.946;2023-03-12T10:52:05;100588.63;;;3.23;100.00
51468;BME280;37545;45.302;-122.946;2023-03-12T10:54:37;100579.94;;;3.19;100.00
51468;BME280;37545;45.302;-122.946;2023-03-12T10:57:07;100589.44;;;3.22;100.00
51468;BME280;37545;45.302;-122.946;2023-03-12T10:59:36;100586.91;;;3.22;100.00
51468;BME280;37545;45.302;-122.946;2023-03-12T11:02:30;100592.88;;;3.22;98.88
51468;BME280;37545;45.302;-122.946;2023-03-12T11:05:00;100586.53;;;3.15;98.45
51468;BME280;37545;45.302;-122.946;2023-03-12T11:07:30;100596.25;;;3.06;98.46
51468;BME280;37545;45.302;-122.946;2023-03-12T11:10:22;100598.97;;;2.94;99.57
51468;BME280;37545;45.302;-122.946;2023-03-12T11:12:54;100598.72;;;2.90;100.00
51468;BME280;37545;45.302;-122.946;2023-03-12T11:15:24;100597.75;;;2.88;100.00
51468;BME280;37545;45.302;-122.946;2023-03-12T11:18:18;100595.41;;;2.91;100.00
51468;BME280;37545;45.302;-122.946;2023-03-12T11:20:46;100580.84;;;2.90;99.74
51468;BME280;37545;45.302;-122.946;2023-03-12T11:23:16;100573.25;;;2.91;99.77
51468;BME280;37545;45.302;-122.946;2023-03-12T11:25:53;100566.38;;;2.90;98.74
51468;BME280;37545;45.302;-122.946;2023-03-12T11:28:24;100566.31;;;2.89;99.04
51468;BME280;37545;45.302;-122.946;2023-03-12T11:30:56;100553.94;;;2.82;98.68
51468;BME280;37545;45.302;-122.946;2023-03-12T11:33:33;100549.75;;;2.82;100.00
51468;BME280;37545;45.302;-122.946;2023-03-12T11:36:11;100541.28;;;2.83;100.00
51468;BME280;37545;45.302;-122.946;2023-03-12T11:38:49;100548.06;;;2.83;99.28
51468;BME280;37545;45.302;-122.946;2023-03-12T11:41:36;100535.28;;;2.83;99.28
51468;BME280;37545;45.302;-122.946;2023-03-12T11:44:21;100530.19;;;2.83;100.00
51468;BME280;37545;45.302;-122.946;2023-03-12T11:47:00;100527.63;;;2.83;100.00
51468;BME280;37545;45.302;-122.946;2023-03-12T11:49:40;100525.94;;;2.83;100.00
51468;BME280;37545;45.302;-122.946;2023-03-12T11:52:18;100531.16;;;2.85;99.67
51468;BME280;37545;45.302;-122.946;2023-03-12T11:58:37;100527.97;;;2.89;99.70
51468;BME280;37545;45.302;-122.946;2023-03-12T12:01:15;100526.38;;;2.91;99.68
51468;BME280;37545;45.302;-122.946;2023-03-12T12:04:02;100528.13;;;2.92;99.28
51468;BME280;37545;45.302;-122.946;2023-03-12T12:06:39;100529.09;;;2.94;100.00
51468;BME280;37545;45.302;-122.946;2023-03-12T12:09:20;100535.00;;;2.93;100.00
51468;BME280;37545;45.302;-122.946;2023-03-12T12:11:59;100534.06;;;2.91;100.00
51468;BME280;37545;45.302;-122.946;2023-03-12T12:14:44;100528.94;;;2.91;100.00
51468;BME280;37545;45.302;-122.946;2023-03-12T12:17:25;100518.00;;;2.93;100.00
51468;BME280;37545;45.302;-122.946;2023-03-12T12:20:21;100521.78;;;3.00;100.00
51468;BME280;37545;45.302;-122.946;2023-03-12T12:23:00;100520.28;;;3.04;100.00
51468;BME280;37545;45.302;-122.946;2023-03-12T12:25:48;100514.53;;;3.08;100.00
51468;BME280;37545;45.302;-122.946;2023-03-12T12:31:18;100508.72;;;3.10;100.00
51468;BME280;37545;45.302;-122.946;2023-03-12T12:34:03;100506.78;;;3.06;100.00
51468;BME280;37545;45.302;-122.946;2023-03-12T12:36:36;100512.50;;;3.02;100.00
51468;BME280;37545;45.302;-122.946;2023-03-12T12:39:10;100490.69;;;2.92;100.00
51468;BME280;37545;45.302;-122.946;2023-03-12T12:41:44;100499.31;;;2.94;100.00
51468;BME280;37545;45.302;-122.946;2023-03-12T12:44:17;100495.06;;;2.95;100.00
51468;BME280;37545;45.302;-122.946;2023-03-12T12:46:51;100497.00;;;2.99;100.00
51468;BME280;37545;45.302;-122.946;2023-03-12T12:49:25;100502.38;;;3.04;100.00
51468;BME280;37545;45.302;-122.946;2023-03-12T12:51:58;100495.78;;;3.07;100.00
51468;BME280;37545;45.302;-122.946;2023-03-12T12:54:33;100497.69;;;3.11;100.00